JBU915 KJFK-KIND
Flight info
| Callsign | JBU915 |
|---|---|
| Flight time | 1h 49m |
| Altitude | 36000 |
| Route | RBV Q430 SAAME BRNAN Q42 HIDON RINTE SNKPT2 |
| Aircraft | A320/M-SDE3FGHIRWY/LB1 |
Departure
| Time | 2026-05-09 17:18 |
|---|---|
| Airport | John F. Kennedy International Airport (KJFK) |
Arrival
| Time | 2026-05-09 19:07 |
|---|---|
| Airport | Indianapolis International Airport (KIND) |
| Time | Latitude | Longitude | Altitude | Speed | Heading |
|---|---|---|---|---|---|
| 2026-05-09 16:54 | 40.64635 | -73.77404 | 21 ft | 0 kts | 179° |
| 2026-05-09 17:09 | 40.64646 | -73.77404 | 22 ft | 3 kts | 182° |
| 2026-05-09 17:09 | 40.64665 | -73.77404 | 21 ft | 3 kts | 175° |
| 2026-05-09 17:10 | 40.64684 | -73.77409 | 22 ft | 3 kts | 152° |
| 2026-05-09 17:10 | 40.64700 | -73.77424 | 23 ft | 3 kts | 126° |
| 2026-05-09 17:10 | 40.64704 | -73.77433 | 20 ft | 2 kts | 120° |
| 2026-05-09 17:14 | 40.64708 | -73.77425 | 20 ft | 4 kts | 62° |
| 2026-05-09 17:14 | 40.64758 | -73.77373 | 20 ft | 11 kts | 42° |
| 2026-05-09 17:14 | 40.64761 | -73.77263 | 22 ft | 4 kts | 106° |
| 2026-05-09 17:14 | 40.64770 | -73.77180 | 20 ft | 17 kts | 60° |
| 2026-05-09 17:15 | 40.64802 | -73.77109 | 21 ft | 1 kts | 58° |
| 2026-05-09 17:15 | 40.64812 | -73.77092 | 22 ft | 7 kts | 53° |
| 2026-05-09 17:15 | 40.64895 | -73.76946 | 24 ft | 31 kts | 54° |
| 2026-05-09 17:15 | 40.64990 | -73.76729 | 22 ft | 18 kts | 108° |
| 2026-05-09 17:16 | 40.64973 | -73.76628 | 22 ft | 11 kts | 40° |
| 2026-05-09 17:17 | 40.64378 | -73.76862 | 21 ft | 120 kts | 210° |
| 2026-05-09 17:18 | 40.63483 | -73.77562 | 169 ft | 169 kts | 211° |
| 2026-05-09 17:18 | 40.62410 | -73.78403 | 758 ft | 194 kts | 210° |
| 2026-05-09 17:18 | 40.61209 | -73.79339 | 1606 ft | 208 kts | 212° |
| 2026-05-09 17:18 | 40.59922 | -73.80294 | 2169 ft | 227 kts | 211° |
| 2026-05-09 17:19 | 40.58408 | -73.81439 | 2258 ft | 269 kts | 210° |
| 2026-05-09 17:19 | 40.56751 | -73.82691 | 3032 ft | 281 kts | 211° |
| 2026-05-09 17:19 | 40.55004 | -73.84010 | 3633 ft | 297 kts | 211° |
| 2026-05-09 17:19 | 40.53164 | -73.85377 | 4244 ft | 310 kts | 210° |
| 2026-05-09 17:20 | 40.51246 | -73.86785 | 4839 ft | 313 kts | 210° |
| 2026-05-09 17:20 | 40.49437 | -73.88094 | 5305 ft | 279 kts | 210° |
| 2026-05-09 17:20 | 40.47836 | -73.89269 | 5758 ft | 249 kts | 211° |
| 2026-05-09 17:20 | 40.46372 | -73.90368 | 6174 ft | 244 kts | 211° |
| 2026-05-09 17:21 | 40.44951 | -73.91563 | 6653 ft | 244 kts | 220° |
| 2026-05-09 17:21 | 40.43979 | -73.93379 | 6648 ft | 245 kts | 241° |
| 2026-05-09 17:21 | 40.43205 | -73.95373 | 6623 ft | 245 kts | 240° |
| 2026-05-09 17:21 | 40.42398 | -73.97354 | 6624 ft | 246 kts | 239° |
| 2026-05-09 17:22 | 40.41577 | -73.99325 | 6625 ft | 246 kts | 239° |
| 2026-05-09 17:22 | 40.40748 | -74.01296 | 6646 ft | 246 kts | 238° |
| 2026-05-09 17:22 | 40.39911 | -74.03281 | 7312 ft | 249 kts | 238° |
| 2026-05-09 17:22 | 40.39070 | -74.05275 | 8294 ft | 251 kts | 238° |
| 2026-05-09 17:23 | 40.38221 | -74.07280 | 9249 ft | 253 kts | 238° |
| 2026-05-09 17:23 | 40.37360 | -74.09312 | 10098 ft | 256 kts | 238° |
| 2026-05-09 17:23 | 40.36495 | -74.11360 | 10877 ft | 258 kts | 239° |
| 2026-05-09 17:23 | 40.35627 | -74.13411 | 11664 ft | 260 kts | 239° |
| 2026-05-09 17:25 | 40.31150 | -74.23938 | 15300 ft | 271 kts | 242° |
| 2026-05-09 17:25 | 40.30229 | -74.26108 | 15915 ft | 276 kts | 242° |
| 2026-05-09 17:25 | 40.29264 | -74.28387 | 16057 ft | 296 kts | 242° |
| 2026-05-09 17:25 | 40.28242 | -74.30795 | 16220 ft | 314 kts | 242° |
| 2026-05-09 17:26 | 40.27161 | -74.33331 | 16648 ft | 322 kts | 242° |
| 2026-05-09 17:26 | 40.26057 | -74.35915 | 16946 ft | 328 kts | 242° |
| 2026-05-09 17:26 | 40.24941 | -74.38522 | 17177 ft | 330 kts | 242° |
| 2026-05-09 17:26 | 40.23813 | -74.41151 | 17821 ft | 332 kts | 242° |
| 2026-05-09 17:27 | 40.22676 | -74.43799 | 18400 ft | 336 kts | 242° |
| 2026-05-09 17:27 | 40.21531 | -74.46471 | 18968 ft | 338 kts | 242° |
| 2026-05-09 17:27 | 40.20554 | -74.49269 | 19545 ft | 340 kts | 252° |
| 2026-05-09 17:27 | 40.20021 | -74.52299 | 20167 ft | 344 kts | 262° |
| 2026-05-09 17:28 | 40.19780 | -74.55438 | 20730 ft | 347 kts | 263° |
| 2026-05-09 17:28 | 40.19539 | -74.58594 | 21268 ft | 350 kts | 262° |
| 2026-05-09 17:28 | 40.19293 | -74.61777 | 21812 ft | 353 kts | 262° |
| 2026-05-09 17:28 | 40.19040 | -74.64984 | 22319 ft | 356 kts | 262° |
| 2026-05-09 17:29 | 40.18781 | -74.68218 | 22842 ft | 359 kts | 262° |
| 2026-05-09 17:29 | 40.18518 | -74.71483 | 23382 ft | 362 kts | 262° |
| 2026-05-09 17:29 | 40.18256 | -74.74773 | 23855 ft | 365 kts | 262° |
| 2026-05-09 17:29 | 40.17993 | -74.78092 | 24332 ft | 367 kts | 262° |
| 2026-05-09 17:30 | 40.17728 | -74.81422 | 24799 ft | 368 kts | 261° |
| 2026-05-09 17:30 | 40.17460 | -74.84755 | 25259 ft | 369 kts | 261° |
| 2026-05-09 17:30 | 40.17190 | -74.88101 | 25704 ft | 370 kts | 261° |
| 2026-05-09 17:30 | 40.16919 | -74.91455 | 26136 ft | 372 kts | 261° |
| 2026-05-09 17:31 | 40.16645 | -74.94819 | 26562 ft | 373 kts | 261° |
| 2026-05-09 17:31 | 40.16368 | -74.98199 | 26980 ft | 374 kts | 261° |
| 2026-05-09 17:32 | 40.15240 | -75.11799 | 28594 ft | 380 kts | 262° |
| 2026-05-09 17:32 | 40.14958 | -75.15236 | 28987 ft | 382 kts | 262° |
| 2026-05-09 17:32 | 40.14671 | -75.18695 | 29379 ft | 384 kts | 261° |
| 2026-05-09 17:33 | 40.14379 | -75.22171 | 29757 ft | 385 kts | 261° |
| 2026-05-09 17:33 | 40.14182 | -75.24522 | 30003 ft | 386 kts | 261° |
| 2026-05-09 17:33 | 40.13889 | -75.28022 | 30328 ft | 388 kts | 262° |
| 2026-05-09 17:33 | 40.13594 | -75.31524 | 30672 ft | 388 kts | 262° |
| 2026-05-09 17:34 | 40.13300 | -75.34992 | 31024 ft | 388 kts | 262° |
| 2026-05-09 17:35 | 40.11554 | -75.55307 | 34257 ft | 361 kts | 263° |
| 2026-05-09 17:35 | 40.11273 | -75.58563 | 34638 ft | 360 kts | 263° |
| 2026-05-09 17:36 | 40.10991 | -75.61813 | 34954 ft | 360 kts | 263° |
| 2026-05-09 17:36 | 40.10707 | -75.65064 | 35246 ft | 361 kts | 263° |
| 2026-05-09 17:36 | 40.10420 | -75.68330 | 35545 ft | 361 kts | 264° |
| 2026-05-09 17:36 | 40.10133 | -75.71594 | 35821 ft | 362 kts | 264° |
| 2026-05-09 17:37 | 40.09841 | -75.74872 | 35945 ft | 364 kts | 264° |
| 2026-05-09 17:37 | 40.09547 | -75.78164 | 35969 ft | 365 kts | 264° |
| 2026-05-09 17:37 | 40.08962 | -75.84757 | 35970 ft | 365 kts | 264° |
| 2026-05-09 17:38 | 40.08377 | -75.91345 | 35966 ft | 365 kts | 264° |
| 2026-05-09 17:39 | 40.07481 | -76.01247 | 35966 ft | 366 kts | 264° |
| 2026-05-09 17:39 | 40.06881 | -76.07843 | 35955 ft | 366 kts | 264° |
| 2026-05-09 17:40 | 40.06280 | -76.14425 | 35962 ft | 364 kts | 264° |
| 2026-05-09 17:40 | 40.05674 | -76.20983 | 35975 ft | 363 kts | 264° |
| 2026-05-09 17:41 | 40.05063 | -76.27528 | 35977 ft | 363 kts | 264° |
| 2026-05-09 17:41 | 40.04453 | -76.34070 | 35980 ft | 363 kts | 264° |
| 2026-05-09 17:42 | 40.03842 | -76.40601 | 35976 ft | 362 kts | 264° |
| 2026-05-09 17:42 | 40.03236 | -76.47129 | 35975 ft | 361 kts | 266° |
| 2026-05-09 17:43 | 40.03543 | -76.53637 | 35988 ft | 361 kts | 275° |
| 2026-05-09 17:43 | 40.04087 | -76.60161 | 35982 ft | 361 kts | 275° |
| 2026-05-09 17:44 | 40.04617 | -76.66666 | 35975 ft | 361 kts | 275° |
| 2026-05-09 17:44 | 40.05144 | -76.73190 | 35974 ft | 361 kts | 275° |
| 2026-05-09 17:45 | 40.05669 | -76.79713 | 35968 ft | 361 kts | 275° |
| 2026-05-09 17:45 | 40.06190 | -76.86239 | 35969 ft | 361 kts | 274° |
| 2026-05-09 17:46 | 40.06704 | -76.92712 | 35981 ft | 360 kts | 275° |
| 2026-05-09 17:46 | 40.07225 | -76.99257 | 35977 ft | 360 kts | 275° |
| 2026-05-09 17:47 | 40.07726 | -77.05725 | 35972 ft | 360 kts | 274° |
| 2026-05-09 17:47 | 40.08227 | -77.12226 | 35966 ft | 359 kts | 274° |
| 2026-05-09 17:48 | 40.08730 | -77.18722 | 35965 ft | 359 kts | 275° |
| 2026-05-09 17:48 | 40.09226 | -77.25210 | 35957 ft | 358 kts | 270° |
| 2026-05-09 17:49 | 40.09641 | -77.31679 | 35949 ft | 357 kts | 275° |
| 2026-05-09 17:49 | 40.10176 | -77.38133 | 35947 ft | 358 kts | 275° |
| 2026-05-09 17:50 | 40.10702 | -77.44602 | 35948 ft | 358 kts | 275° |
| 2026-05-09 17:50 | 40.11413 | -77.54257 | 35944 ft | 358 kts | 274° |
| 2026-05-09 17:51 | 40.11880 | -77.60714 | 35955 ft | 358 kts | 274° |
| 2026-05-09 17:51 | 40.12348 | -77.67194 | 35951 ft | 358 kts | 274° |
| 2026-05-09 17:52 | 40.12818 | -77.73656 | 35943 ft | 357 kts | 274° |
| 2026-05-09 17:52 | 40.13285 | -77.80132 | 35946 ft | 357 kts | 274° |
| 2026-05-09 17:53 | 40.13663 | -77.86602 | 35941 ft | 357 kts | 272° |
| 2026-05-09 17:53 | 40.13733 | -77.93096 | 35940 ft | 357 kts | 270° |
| 2026-05-09 17:54 | 40.13735 | -77.99612 | 35937 ft | 357 kts | 270° |
| 2026-05-09 17:54 | 40.13776 | -78.06047 | 35936 ft | 357 kts | 271° |
| 2026-05-09 17:55 | 40.13837 | -78.12542 | 35933 ft | 357 kts | 271° |
| 2026-05-09 17:55 | 40.13901 | -78.19062 | 35933 ft | 357 kts | 271° |
| 2026-05-09 17:56 | 40.13959 | -78.25520 | 35931 ft | 357 kts | 271° |
| 2026-05-09 17:57 | 40.14038 | -78.35251 | 35930 ft | 357 kts | 271° |
| 2026-05-09 17:57 | 40.14086 | -78.41736 | 35932 ft | 357 kts | 271° |
| 2026-05-09 17:58 | 40.14126 | -78.48220 | 35931 ft | 356 kts | 270° |
| 2026-05-09 17:58 | 40.14166 | -78.54706 | 35930 ft | 356 kts | 271° |
| 2026-05-09 17:59 | 40.14205 | -78.61185 | 35928 ft | 356 kts | 271° |
| 2026-05-09 17:59 | 40.14238 | -78.67492 | 35925 ft | 356 kts | 270° |
| 2026-05-09 18:00 | 40.14265 | -78.73955 | 35921 ft | 356 kts | 271° |
| 2026-05-09 18:00 | 40.14288 | -78.80452 | 35908 ft | 356 kts | 271° |
| 2026-05-09 18:01 | 40.14308 | -78.86914 | 35910 ft | 356 kts | 271° |
| 2026-05-09 18:01 | 40.14326 | -78.93384 | 35906 ft | 356 kts | 270° |
| 2026-05-09 18:02 | 40.14340 | -78.99808 | 35910 ft | 356 kts | 270° |
| 2026-05-09 18:02 | 40.14351 | -79.06273 | 35913 ft | 356 kts | 271° |
| 2026-05-09 18:03 | 40.14360 | -79.12743 | 35915 ft | 356 kts | 271° |
| 2026-05-09 18:03 | 40.14401 | -79.19236 | 35922 ft | 357 kts | 272° |
| 2026-05-09 18:04 | 40.14571 | -79.25705 | 35925 ft | 357 kts | 272° |
| 2026-05-09 18:04 | 40.14757 | -79.32194 | 35926 ft | 356 kts | 272° |
| 2026-05-09 18:05 | 40.14911 | -79.38683 | 35924 ft | 356 kts | 272° |
| 2026-05-09 18:05 | 40.15057 | -79.45119 | 35935 ft | 356 kts | 272° |
| 2026-05-09 18:06 | 40.15203 | -79.51581 | 35926 ft | 356 kts | 272° |
| 2026-05-09 18:06 | 40.15341 | -79.58053 | 35919 ft | 356 kts | 272° |
| 2026-05-09 18:07 | 40.15474 | -79.64531 | 35918 ft | 356 kts | 272° |
| 2026-05-09 18:07 | 40.15597 | -79.71004 | 35902 ft | 356 kts | 272° |
| 2026-05-09 18:08 | 40.15724 | -79.77480 | 35902 ft | 356 kts | 272° |
| 2026-05-09 18:08 | 40.15855 | -79.83946 | 35895 ft | 356 kts | 272° |
| 2026-05-09 18:09 | 40.15973 | -79.90391 | 35899 ft | 355 kts | 272° |
| 2026-05-09 18:09 | 40.16085 | -79.96841 | 35902 ft | 355 kts | 272° |
| 2026-05-09 18:10 | 40.16201 | -80.03308 | 35926 ft | 355 kts | 272° |
| 2026-05-09 18:10 | 40.16312 | -80.09775 | 35937 ft | 355 kts | 272° |
| 2026-05-09 18:11 | 40.16413 | -80.16232 | 35944 ft | 355 kts | 272° |
| 2026-05-09 18:11 | 40.16511 | -80.22700 | 35957 ft | 356 kts | 272° |
| 2026-05-09 18:12 | 40.16608 | -80.29125 | 35951 ft | 356 kts | 272° |
| 2026-05-09 18:12 | 40.16703 | -80.35590 | 35949 ft | 356 kts | 272° |
| 2026-05-09 18:13 | 40.16791 | -80.42055 | 35949 ft | 355 kts | 272° |
| 2026-05-09 18:13 | 40.16877 | -80.48517 | 35941 ft | 355 kts | 272° |
| 2026-05-09 18:14 | 40.16966 | -80.54986 | 35930 ft | 355 kts | 273° |
| 2026-05-09 18:14 | 40.17048 | -80.61432 | 35926 ft | 354 kts | 273° |
| 2026-05-09 18:15 | 40.17109 | -80.66795 | 35911 ft | 354 kts | 273° |
| 2026-05-09 18:15 | 40.17184 | -80.73214 | 35910 ft | 353 kts | 273° |
| 2026-05-09 18:16 | 40.17263 | -80.80667 | 35909 ft | 353 kts | 273° |
| 2026-05-09 18:16 | 40.17311 | -80.86044 | 35906 ft | 352 kts | 273° |
| 2026-05-09 18:17 | 40.17371 | -80.92427 | 35900 ft | 352 kts | 273° |
| 2026-05-09 18:17 | 40.17428 | -80.98831 | 35905 ft | 352 kts | 272° |
| 2026-05-09 18:18 | 40.17379 | -81.05237 | 35901 ft | 352 kts | 272° |
| 2026-05-09 18:18 | 40.17294 | -81.11626 | 35907 ft | 352 kts | 272° |
| 2026-05-09 18:19 | 40.17215 | -81.17986 | 35904 ft | 351 kts | 272° |
| 2026-05-09 18:19 | 40.17109 | -81.27554 | 35894 ft | 350 kts | 272° |
| 2026-05-09 18:20 | 40.17044 | -81.33919 | 35887 ft | 350 kts | 272° |
| 2026-05-09 18:20 | 40.16974 | -81.40287 | 35890 ft | 350 kts | 272° |
| 2026-05-09 18:21 | 40.16885 | -81.46644 | 35890 ft | 349 kts | 272° |
| 2026-05-09 18:21 | 40.16795 | -81.52993 | 35889 ft | 349 kts | 272° |
| 2026-05-09 18:22 | 40.16707 | -81.59336 | 35840 ft | 348 kts | 272° |
| 2026-05-09 18:22 | 40.16859 | -81.65645 | 35839 ft | 347 kts | 277° |
| 2026-05-09 18:23 | 40.17247 | -81.71940 | 35849 ft | 347 kts | 276° |
| 2026-05-09 18:23 | 40.17616 | -81.78206 | 35858 ft | 347 kts | 276° |
| 2026-05-09 18:24 | 40.17989 | -81.84507 | 35864 ft | 348 kts | 276° |
| 2026-05-09 18:25 | 40.18543 | -81.93956 | 35867 ft | 347 kts | 276° |
| 2026-05-09 18:25 | 40.18904 | -82.00257 | 35867 ft | 347 kts | 276° |
| 2026-05-09 18:26 | 40.19261 | -82.06570 | 35867 ft | 347 kts | 276° |
| 2026-05-09 18:26 | 40.19615 | -82.12857 | 35869 ft | 347 kts | 276° |
| 2026-05-09 18:27 | 40.19969 | -82.19163 | 35867 ft | 347 kts | 276° |
| 2026-05-09 18:27 | 40.20316 | -82.25418 | 35870 ft | 347 kts | 276° |
| 2026-05-09 18:28 | 40.20664 | -82.31719 | 35865 ft | 347 kts | 276° |
| 2026-05-09 18:28 | 40.21006 | -82.38015 | 35869 ft | 347 kts | 276° |
| 2026-05-09 18:29 | 40.21336 | -82.44317 | 35847 ft | 347 kts | 276° |
| 2026-05-09 18:29 | 40.21670 | -82.50629 | 35857 ft | 348 kts | 276° |
| 2026-05-09 18:30 | 40.22008 | -82.56945 | 35857 ft | 348 kts | 276° |
| 2026-05-09 18:30 | 40.22337 | -82.63264 | 35861 ft | 348 kts | 276° |
| 2026-05-09 18:31 | 40.22667 | -82.69581 | 35863 ft | 348 kts | 276° |
| 2026-05-09 18:31 | 40.22986 | -82.75862 | 35862 ft | 348 kts | 276° |
| 2026-05-09 18:32 | 40.23300 | -82.82186 | 35841 ft | 348 kts | 276° |
| 2026-05-09 18:32 | 40.23615 | -82.88518 | 35849 ft | 348 kts | 276° |
| 2026-05-09 18:33 | 40.23929 | -82.94848 | 35849 ft | 349 kts | 276° |
| 2026-05-09 18:33 | 40.24241 | -83.01152 | 35851 ft | 349 kts | 276° |
| 2026-05-09 18:34 | 40.24546 | -83.07492 | 35851 ft | 349 kts | 276° |
| 2026-05-09 18:34 | 40.24849 | -83.13845 | 35856 ft | 349 kts | 276° |
| 2026-05-09 18:35 | 40.25151 | -83.20167 | 35844 ft | 350 kts | 276° |
| 2026-05-09 18:35 | 40.25449 | -83.26537 | 35839 ft | 350 kts | 276° |
| 2026-05-09 18:36 | 40.25737 | -83.32897 | 35844 ft | 350 kts | 276° |
| 2026-05-09 18:36 | 40.26026 | -83.39279 | 35849 ft | 351 kts | 276° |
| 2026-05-09 18:37 | 40.26316 | -83.45655 | 35897 ft | 351 kts | 276° |
| 2026-05-09 18:37 | 40.26600 | -83.52045 | 35935 ft | 351 kts | 276° |
| 2026-05-09 18:38 | 40.26878 | -83.58432 | 35955 ft | 352 kts | 276° |
| 2026-05-09 18:38 | 40.27154 | -83.64840 | 35994 ft | 352 kts | 276° |
| 2026-05-09 18:40 | 40.28235 | -83.90438 | 36049 ft | 352 kts | 276° |
| 2026-05-09 18:41 | 40.28492 | -83.96871 | 36008 ft | 353 kts | 276° |
| 2026-05-09 18:41 | 40.28749 | -84.03302 | 35843 ft | 353 kts | 275° |
| 2026-05-09 18:42 | 40.28604 | -84.09723 | 35846 ft | 356 kts | 271° |
| 2026-05-09 18:42 | 40.28389 | -84.16207 | 35839 ft | 356 kts | 271° |
| 2026-05-09 18:43 | 40.28171 | -84.22670 | 35540 ft | 353 kts | 271° |
| 2026-05-09 18:43 | 40.28059 | -84.25867 | 34924 ft | 353 kts | 271° |
| 2026-05-09 18:43 | 40.27948 | -84.29095 | 34270 ft | 354 kts | 272° |
| 2026-05-09 18:43 | 40.27842 | -84.32266 | 33615 ft | 354 kts | 272° |
| 2026-05-09 18:44 | 40.27731 | -84.35490 | 33008 ft | 352 kts | 272° |
| 2026-05-09 18:44 | 40.27619 | -84.38686 | 32479 ft | 349 kts | 272° |
| 2026-05-09 18:44 | 40.27506 | -84.41871 | 31937 ft | 346 kts | 272° |
| 2026-05-09 18:44 | 40.27393 | -84.45001 | 31405 ft | 343 kts | 272° |
| 2026-05-09 18:45 | 40.27280 | -84.48106 | 30874 ft | 340 kts | 272° |
| 2026-05-09 18:45 | 40.27168 | -84.51189 | 30361 ft | 338 kts | 272° |
| 2026-05-09 18:45 | 40.27058 | -84.54250 | 29844 ft | 335 kts | 272° |
| 2026-05-09 18:45 | 40.26949 | -84.57297 | 29254 ft | 333 kts | 272° |
| 2026-05-09 18:46 | 40.26841 | -84.60277 | 28692 ft | 331 kts | 271° |
| 2026-05-09 18:46 | 40.26729 | -84.63278 | 28141 ft | 328 kts | 271° |
| 2026-05-09 18:46 | 40.26616 | -84.66255 | 27614 ft | 327 kts | 271° |
| 2026-05-09 18:46 | 40.26501 | -84.69220 | 27095 ft | 325 kts | 271° |
| 2026-05-09 18:47 | 40.26387 | -84.72172 | 26598 ft | 324 kts | 271° |
| 2026-05-09 18:47 | 40.26278 | -84.75111 | 26334 ft | 323 kts | 271° |
| 2026-05-09 18:47 | 40.26170 | -84.78067 | 26080 ft | 324 kts | 271° |
| 2026-05-09 18:47 | 40.26062 | -84.81021 | 25838 ft | 324 kts | 271° |
| 2026-05-09 18:48 | 40.25953 | -84.83959 | 25588 ft | 324 kts | 271° |
| 2026-05-09 18:48 | 40.25840 | -84.86881 | 25282 ft | 319 kts | 271° |
| 2026-05-09 18:48 | 40.25730 | -84.89742 | 24884 ft | 317 kts | 271° |
| 2026-05-09 18:48 | 40.25619 | -84.92620 | 24474 ft | 316 kts | 271° |
| 2026-05-09 18:49 | 40.25507 | -84.95525 | 24056 ft | 315 kts | 271° |
| 2026-05-09 18:49 | 40.25400 | -84.98343 | 23641 ft | 314 kts | 271° |
| 2026-05-09 18:49 | 40.25290 | -85.01195 | 23193 ft | 313 kts | 271° |
| 2026-05-09 18:49 | 40.25178 | -85.04034 | 22734 ft | 310 kts | 271° |
| 2026-05-09 18:50 | 40.25067 | -85.06841 | 22289 ft | 307 kts | 271° |
| 2026-05-09 18:50 | 40.24955 | -85.09611 | 21879 ft | 303 kts | 271° |
| 2026-05-09 18:50 | 40.24841 | -85.12353 | 21442 ft | 301 kts | 270° |
| 2026-05-09 18:50 | 40.24728 | -85.15074 | 21012 ft | 298 kts | 270° |
| 2026-05-09 18:51 | 40.24619 | -85.17781 | 20567 ft | 296 kts | 270° |
| 2026-05-09 18:51 | 40.24513 | -85.20435 | 20133 ft | 295 kts | 270° |
| 2026-05-09 18:51 | 40.24404 | -85.23112 | 19688 ft | 294 kts | 270° |
| 2026-05-09 18:51 | 40.24295 | -85.25774 | 19252 ft | 293 kts | 270° |
| 2026-05-09 18:52 | 40.24182 | -85.28443 | 18803 ft | 293 kts | 270° |
| 2026-05-09 18:52 | 40.24068 | -85.31098 | 18363 ft | 292 kts | 270° |
| 2026-05-09 18:52 | 40.23956 | -85.33759 | 17909 ft | 292 kts | 270° |
| 2026-05-09 18:52 | 40.23846 | -85.36408 | 17444 ft | 291 kts | 269° |
| 2026-05-09 18:53 | 40.23557 | -85.39029 | 17001 ft | 293 kts | 259° |
| 2026-05-09 18:53 | 40.22808 | -85.41528 | 16567 ft | 297 kts | 247° |
| 2026-05-09 18:53 | 40.21790 | -85.43866 | 16223 ft | 293 kts | 246° |
| 2026-05-09 18:53 | 40.20791 | -85.46178 | 15804 ft | 292 kts | 246° |
| 2026-05-09 18:54 | 40.19797 | -85.48497 | 15369 ft | 292 kts | 246° |
| 2026-05-09 18:54 | 40.18805 | -85.50807 | 14928 ft | 292 kts | 246° |
| 2026-05-09 18:54 | 40.17810 | -85.53121 | 14475 ft | 292 kts | 246° |
| 2026-05-09 18:54 | 40.16815 | -85.55434 | 14033 ft | 292 kts | 246° |
| 2026-05-09 18:55 | 40.15817 | -85.57744 | 13591 ft | 292 kts | 245° |
| 2026-05-09 18:55 | 40.14818 | -85.60051 | 13133 ft | 291 kts | 245° |
| 2026-05-09 18:55 | 40.13825 | -85.62346 | 12712 ft | 289 kts | 245° |
| 2026-05-09 18:55 | 40.12841 | -85.64635 | 12293 ft | 288 kts | 245° |
| 2026-05-09 18:56 | 40.11872 | -85.66905 | 11894 ft | 286 kts | 245° |
| 2026-05-09 18:56 | 40.10918 | -85.69148 | 11483 ft | 286 kts | 245° |
| 2026-05-09 18:56 | 40.09950 | -85.71416 | 11075 ft | 285 kts | 245° |
| 2026-05-09 18:56 | 40.08980 | -85.73676 | 10674 ft | 285 kts | 245° |
| 2026-05-09 18:57 | 40.08010 | -85.75937 | 10270 ft | 284 kts | 245° |
| 2026-05-09 18:57 | 40.07058 | -85.78152 | 10125 ft | 275 kts | 245° |
| 2026-05-09 18:57 | 40.06137 | -85.80290 | 9946 ft | 267 kts | 245° |
| 2026-05-09 18:57 | 40.05208 | -85.82368 | 9790 ft | 262 kts | 243° |
| 2026-05-09 18:58 | 40.04244 | -85.84395 | 9476 ft | 262 kts | 242° |
| 2026-05-09 18:58 | 40.03263 | -85.86406 | 9094 ft | 262 kts | 240° |
| 2026-05-09 18:58 | 40.02083 | -85.88240 | 8683 ft | 267 kts | 231° |
| 2026-05-09 18:58 | 40.00797 | -85.89974 | 8329 ft | 265 kts | 231° |
| 2026-05-09 18:59 | 39.99513 | -85.91713 | 7979 ft | 264 kts | 231° |
| 2026-05-09 18:59 | 39.98248 | -85.93432 | 7658 ft | 262 kts | 231° |
| 2026-05-09 18:59 | 39.96995 | -85.95141 | 7308 ft | 261 kts | 231° |
| 2026-05-09 18:59 | 39.95753 | -85.96836 | 6943 ft | 261 kts | 231° |
| 2026-05-09 19:00 | 39.94499 | -85.98549 | 6559 ft | 262 kts | 230° |
| 2026-05-09 19:00 | 39.91997 | -86.01959 | 5645 ft | 259 kts | 229° |
| 2026-05-09 19:00 | 39.90777 | -86.03614 | 5343 ft | 245 kts | 229° |
| 2026-05-09 19:01 | 39.89633 | -86.05164 | 5205 ft | 227 kts | 229° |
| 2026-05-09 19:01 | 39.88584 | -86.06582 | 5101 ft | 208 kts | 230° |
| 2026-05-09 19:01 | 39.87624 | -86.07879 | 4983 ft | 200 kts | 229° |
| 2026-05-09 19:01 | 39.86638 | -86.09170 | 4760 ft | 203 kts | 229° |
| 2026-05-09 19:02 | 39.85983 | -86.10019 | 4584 ft | 198 kts | 227° |
| 2026-05-09 19:02 | 39.85019 | -86.11253 | 4341 ft | 188 kts | 227° |
| 2026-05-09 19:02 | 39.84112 | -86.12418 | 4095 ft | 177 kts | 226° |
| 2026-05-09 19:02 | 39.83001 | -86.13842 | 3788 ft | 161 kts | 226° |
| 2026-05-09 19:03 | 39.82231 | -86.14831 | 3565 ft | 151 kts | 226° |
| 2026-05-09 19:03 | 39.81497 | -86.15773 | 3388 ft | 146 kts | 226° |
| 2026-05-09 19:03 | 39.81009 | -86.16399 | 3252 ft | 146 kts | 226° |
| 2026-05-09 19:03 | 39.80048 | -86.17628 | 2993 ft | 145 kts | 224° |
| 2026-05-09 19:04 | 39.79565 | -86.18250 | 2894 ft | 145 kts | 224° |
| 2026-05-09 19:04 | 39.78837 | -86.19178 | 2708 ft | 148 kts | 223° |
| 2026-05-09 19:04 | 39.78120 | -86.20100 | 2496 ft | 146 kts | 223° |
| 2026-05-09 19:04 | 39.77401 | -86.21019 | 2316 ft | 144 kts | 224° |
| 2026-05-09 19:05 | 39.76690 | -86.21926 | 2117 ft | 137 kts | 224° |
| 2026-05-09 19:05 | 39.76026 | -86.22775 | 1967 ft | 131 kts | 224° |
| 2026-05-09 19:05 | 39.75384 | -86.23596 | 1783 ft | 126 kts | 223° |
| 2026-05-09 19:05 | 39.74758 | -86.24398 | 1616 ft | 132 kts | 223° |
| 2026-05-09 19:06 | 39.74101 | -86.25251 | 1418 ft | 132 kts | 223° |
| 2026-05-09 19:06 | 39.73426 | -86.26076 | 1222 ft | 135 kts | 224° |
| 2026-05-09 19:06 | 39.72759 | -86.26957 | 1067 ft | 145 kts | 227° |
| 2026-05-09 19:06 | 39.72020 | -86.27882 | 854 ft | 140 kts | 225° |
| 2026-05-09 19:07 | 39.71400 | -86.28689 | 783 ft | 111 kts | 224° |
| 2026-05-09 19:07 | 39.71144 | -86.29016 | 782 ft | 26 kts | 225° |
| 2026-05-09 19:07 | 39.70936 | -86.29283 | 780 ft | 42 kts | 229° |
| 2026-05-09 19:07 | 39.70861 | -86.29551 | 781 ft | 16 kts | 252° |
| 2026-05-09 19:08 | 39.70907 | -86.29594 | 781 ft | 8 kts | 15° |
| 2026-05-09 19:08 | 39.70961 | -86.29546 | 781 ft | 11 kts | 43° |
| 2026-05-09 19:08 | 39.71020 | -86.29472 | 781 ft | 13 kts | 44° |
| 2026-05-09 19:08 | 39.71100 | -86.29402 | 781 ft | 15 kts | 18° |
| 2026-05-09 19:09 | 39.71207 | -86.29388 | 781 ft | 17 kts | 356° |
| 2026-05-09 19:09 | 39.71326 | -86.29400 | 781 ft | 15 kts | 10° |
| 2026-05-09 19:09 | 39.71396 | -86.29375 | 781 ft | 8 kts | 337° |
| 2026-05-09 19:09 | 39.71411 | -86.29392 | 781 ft | 2 kts | 316° |
| 2026-05-09 19:10 | 39.71420 | -86.29402 | 781 ft | 1 kts | 317° |
| 2026-05-09 19:10 | 39.71432 | -86.29418 | 781 ft | 4 kts | 317° |
| 2026-05-09 19:10 | 39.71437 | -86.29424 | 781 ft | 2 kts | 317° |
| 2026-05-09 19:10 | 39.71449 | -86.29437 | 781 ft | 1 kts | 321° |
| 2026-05-09 19:11 | 39.71461 | -86.29449 | 781 ft | 3 kts | 320° |
| 2026-05-09 19:11 | 39.71465 | -86.29453 | 781 ft | 2 kts | 320° |
| 2026-05-09 19:11 | 39.71470 | -86.29459 | 781 ft | 0 kts | 320° |